map of RBR home
RBR - Airport
Location
City:  Rio Branco, Acre, Brazil
Name:Presidente Medici
ICAO:SBRB
IATA:RBR

Details
Type:Airport (Aerodrome, Airfield)
Use:Public/Civil, International (customs port of entry)
Latitude:952'09"S (-9.869157)
Longitude:6753'39"W (-67.894071)
Datum:WGS 1984
Elevation:633 ft (193 m)
Variation:9.98W (WMM2015v2 magnetic declination)
-0.19 annual change
Runways:1
Longest:7080 × 148 ft (2158 × 45 m), paved

Time
Time Zone:UTC-5
Local Time:

Weather
METAR:SBRB 041400Z 16006KT 9999 SCT015 SCT100 28/25 Q1015
TAF:SBRB 041000Z 0412/0512 14003KT 9999 SCT002 TX30/0418Z TN23/0507Z
BECMG 0414/0416 15008KT BKN020
BECMG 0417/0419 BKN020 FEW025TCU
BECMG 0419/0421 21006KT SCT010
BECMG 0504/0506 21003KT 9999 BKN002
RMK PFF

Related Locations
Nearby:
Farthest:RCSP: 12291 mi / 19780 km
Taiping Island (Itu Aba) [Taiping Island Airport], Spratly Islands, TW

Find:

   beyond  
but within

Other Information
Maps:
NOTAMs:
Links:
Sources:

  
  • flag of Brazil
  • flag of Acre
  

Sectional Chart

Flight Planning
at skyvector.com

Satellite Image

Google Maps Satellite view

 

Copyright © 2004-2019 Karl L. Swartz. All rights reserved.
The Great Circle Mapper name and logo are trademarks of the Great Circle Mapper.
All other trademarks mentioned herein belong to their respective owners.
Please see credits for attibutions and further copyright information.

  Follow gcmap on Facebook Follow gcmap on Twitter GCmap on LinkedIn

hCard Microformat

Geo Microformat